D/T METAR WX W/DIR W/SPE G/SPE TEMP DEWP
18/02/19 10:00 EIME 181000Z 23019G30KT 9999 -RA FEW015 SCT020 BKN050 06/04 Q1007 -RA SW (230°) 21.9mph 34.5mph 6°C 4°C
18/02/19 09:30 EIME 180930Z 22021KT 9999 -RA BKN020 06/03 Q1006 -RA SW (220°) 24.2mph 6°C 3°C
18/02/19 09:00 EIME 180900Z 22023KT 9999 SCT022 06/02 Q1006 SW (220°) 26.5mph 6°C 2°C
18/02/19 08:30 EIME 180830Z 21021KT 9999 SCT040 06/02 Q1006 SSW (210°) 24.2mph 6°C 2°C
18/02/19 08:00 EIME 180800Z 21019G30KT 9999 SCT040 05/02 Q1006 SSW (210°) 21.9mph 34.5mph 5°C 2°C
18/02/19 07:00 EIME 180700Z 22020KT 9999 FEW040 05/02 Q1005 SW (220°) 23.0mph 5°C 2°C
18/02/19 06:00 EIME 180600Z 22018KT 9999 FEW017 SCT035 05/02 Q1005 SW (220°) 20.7mph 5°C 2°C
18/02/19 05:00 EIME 180500Z 22017G27KT 9999 FEW017 SCT045 06/04 Q1005 SW (220°) 19.6mph 31.1mph 6°C 4°C
18/02/19 04:00 EIME 180400Z 22016KT 9999 FEW017 SCT045 06/04 Q1005 SW (220°) 18.4mph 6°C 4°C
18/02/19 03:00 EIME 180300Z 22016G27KT 9999 FEW017 SCT047 06/04 Q1005 SW (220°) 18.4mph 31.1mph 6°C 4°C
18/02/19 02:00 EIME 180200Z 22020KT 9999 -RA FEW017 SCT026 08/05 Q1004 -RA SW (220°) 23.0mph 8°C 5°C
18/02/19 01:00 EIME 180100Z 21021KT 9999 FEW018 07/04 Q1004 SSW (210°) 24.2mph 7°C 4°C
18/02/19 00:00 EIME 180000Z 21018KT 9999 FEW018 07/04 Q1004 SSW (210°) 20.7mph 7°C 4°C
17/02/19 23:00 EIME 172300Z 21019G31KT 9999 FEW020 08/04 Q1004 SSW (210°) 21.9mph 35.7mph 8°C 4°C
17/02/19 22:00 EIME 172200Z 20019KT 9999 FEW020 08/05 Q1004 SSW (200°) 21.9mph 8°C 5°C
17/02/19 21:00 EIME 172100Z 22015KT 9999 FEW023 08/05 Q1004 SW (220°) 17.3mph 8°C 5°C
17/02/19 20:00 EIME 172000Z 20020KT 9999 FEW023 09/05 Q1004 SSW (200°) 23.0mph 9°C 5°C
17/02/19 19:00 EIME 171900Z 19018KT 9999 FEW026 09/05 Q1003 S (190°) 20.7mph 9°C 5°C
17/02/19 18:00 EIME 171800Z 22022KT 9999 FEW026 SCT040 09/05 Q1003 SW (220°) 25.3mph 9°C 5°C
17/02/19 17:00 EIME 171700Z 19018KT 9999 FEW018CB SCT040 10/05 Q1003 S (190°) 20.7mph 10°C 5°C
17/02/19 16:00 EIME 171600Z 19020G30KT 9999 FEW032 SCT040 10/05 Q1003 S (190°) 23.0mph 34.5mph 10°C 5°C
17/02/19 15:00 EIME 171500Z 20018G28KT 9999 FEW032 10/04 Q1003 SSW (200°) 20.7mph 32.2mph 10°C 4°C
17/02/19 14:00 EIME 171400Z 20021KT 9999 FEW032 11/04 Q1003 SSW (200°) 24.2mph 11°C 4°C
17/02/19 13:00 EIME 171300Z 22016KT 9999 FEW032 11/05 Q1004 SW (220°) 18.4mph 11°C 5°C
17/02/19 12:00 EIME 171200Z 21019KT 9999 FEW025 10/05 Q1004 SSW (210°) 21.9mph 10°C 5°C
17/02/19 11:00 EIME 171100Z 21015KT 9999 FEW020 10/07 Q1003 SSW (210°) 17.3mph 10°C 7°C
17/02/19 10:00 EIME 171000Z 21020KT 9999 FEW016 FEW018CB SCT035 08/06 Q1003 SSW (210°) 23.0mph 8°C 6°C
17/02/19 09:00 EIME 170900Z 20018KT 9999 FEW018 BKN160 09/06 Q1002 SSW (200°) 20.7mph 9°C 6°C
17/02/19 08:00 EIME 170800Z 20017G27KT 9999 -RA FEW018 BKN050 09/07 Q1001 -RA SSW (200°) 19.6mph 31.1mph 9°C 7°C
17/02/19 07:00 EIME 170700Z 19017KT 9999 -RA SCT018 BKN040 09/07 Q1001 -RA S (190°) 19.6mph 9°C 7°C
17/02/19 06:00 EIME 170600Z 19020G36KT 9999 -RA SCT015 BKN019 11/09 Q1002 -RA S (190°) 23.0mph 41.4mph 11°C 9°C
17/02/19 05:00 EIME 170500Z 18024G34KT 9999 FEW015 BKN017 11/08 Q1002 S (180°) 27.6mph 39.1mph 11°C 8°C
17/02/19 04:00 EIME 170400Z 19021G33KT 9999 FEW019 BKN024 12/07 Q1003 S (190°) 24.2mph 38.0mph 12°C 7°C
17/02/19 03:00 EIME 170300Z 19023G36KT 9999 FEW019 BKN022 12/07 Q1004 S (190°) 26.5mph 41.4mph 12°C 7°C
17/02/19 02:00 EIME 170200Z 19021G36KT 9999 FEW019 BKN024 12/07 Q1005 S (190°) 24.2mph 41.4mph 12°C 7°C
17/02/19 01:00 EIME 170100Z 18025G38KT 9999 SCT019 BKN025 12/07 Q1006 S (180°) 28.8mph 43.7mph 12°C 7°C
17/02/19 00:00 EIME 170000Z 19018G34KT 9999 BKN019 12/08 Q1007 S (190°) 20.7mph 39.1mph 12°C 8°C
16/02/19 23:00 EIME 162300Z 19023G38KT 9999 BKN019 12/08 Q1007 S (190°) 26.5mph 43.7mph 12°C 8°C
16/02/19 22:00 EIME 162200Z 20020G35KT 9999 BKN017 12/08 Q1008 SSW (200°) 23.0mph 40.3mph 12°C 8°C
16/02/19 21:00 EIME 162100Z 19016G29KT 9999 BKN019 SCT030 11/09 Q1008 S (190°) 18.4mph 33.4mph 11°C 9°C
16/02/19 20:00 EIME 162000Z 19018KT 9999 SCT018 BKN025 12/09 Q1008 S (190°) 20.7mph 12°C 9°C
16/02/19 19:00 EIME 161900Z 19011KT 9999 -DZ FEW017 BKN025 11/09 Q1009 -DZ S (190°) 12.7mph 11°C 9°C
16/02/19 18:00 EIME 161800Z 20012KT 9999 FEW015 SCT020 11/08 Q1010 SSW (200°) 13.8mph 11°C 8°C
16/02/19 17:00 EIME 161700Z 19013KT 9999 -RA BKN020 11/08 Q1010 -RA S (190°) 15.0mph 11°C 8°C
16/02/19 16:00 EIME 161600Z 20013KT 9999 SCT030 SCT130 11/06 Q1010 SSW (200°) 15.0mph 11°C 6°C
16/02/19 15:00 EIME 161500Z 20018KT 9999 SCT030 SCT150 11/06 Q1011 SSW (200°) 20.7mph 11°C 6°C
16/02/19 14:00 EIME 161400Z 20017KT 9999 SCT035 SCT110 12/06 Q1012 SSW (200°) 19.6mph 12°C 6°C
16/02/19 13:00 EIME 161300Z 20016KT 9999 SCT030 SCT130 11/06 Q1013 SSW (200°) 18.4mph 11°C 6°C
16/02/19 12:00 EIME 161200Z 20016KT 9999 SCT030 SCT120 10/06 Q1014 SSW (200°) 18.4mph 10°C 6°C
16/02/19 11:00 EIME 161100Z 20012KT 9999 SCT040 10/06 Q1015 SSW (200°) 13.8mph 10°C 6°C
16/02/19 10:00 EIME 161000Z 19013KT 9999 FEW020 BKN170 09/06 Q1015 S (190°) 15.0mph 9°C 6°C
16/02/19 09:00 EIME 160900Z 19009KT 9999 FEW015 BKN250 08/05 Q1015 S (190°) 10.4mph 8°C 5°C
16/02/19 08:00 EIME 160800Z 20009KT 9999 FEW015 BKN230 07/04 Q1015 SSW (200°) 10.4mph 7°C 4°C
16/02/19 07:00 EIME 160700Z 20010KT 9999 FEW015 BKN240 07/04 Q1014 SSW (200°) 11.5mph 7°C 4°C
16/02/19 06:00 EIME 160600Z 21011KT 9999 FEW015 SCT023 07/05 Q1014 SSW (210°) 12.7mph 7°C 5°C
16/02/19 05:00 EIME 160500Z 21014G24KT 9999 FEW015 SCT023 08/05 Q1014 SSW (210°) 16.1mph 27.6mph 8°C 5°C
16/02/19 04:00 EIME 160400Z 22013KT 9999 FEW015 BKN023 09/06 Q1014 SW (220°) 15.0mph 9°C 6°C
16/02/19 03:00 EIME 160300Z 22013KT 9999 FEW015 BKN023 09/06 Q1014 SW (220°) 15.0mph 9°C 6°C
16/02/19 02:00 EIME 160200Z 22013G24KT 9999 FEW015 BKN030 09/06 Q1014 SW (220°) 15.0mph 27.6mph 9°C 6°C
16/02/19 01:00 EIME 160100Z 22016KT 9999 FEW015 BKN033 10/07 Q1014 SW (220°) 18.4mph 10°C 7°C
16/02/19 00:00 EIME 160000Z 22014G29KT 9999 FEW015 BKN030 10/06 Q1014 SW (220°) 16.1mph 33.4mph 10°C 6°C
15/02/19 23:00 EIME 152300Z 21016G28KT 9999 FEW015 BKN030 10/07 Q1013 SSW (210°) 18.4mph 32.2mph 10°C 7°C
15/02/19 22:00 EIME 152200Z 21018G29KT 9999 FEW015 BKN030 10/07 Q1013 SSW (210°) 20.7mph 33.4mph 10°C 7°C
15/02/19 21:00 EIME 152100Z 21019G32KT 9999 FEW015 BKN030 11/07 Q1014 SSW (210°) 21.9mph 36.8mph 11°C 7°C
15/02/19 20:00 EIME 152000Z 21018KT 9999 FEW015 BKN020 11/09 Q1013 SSW (210°) 20.7mph 11°C 9°C
15/02/19 19:00 EIME 151900Z 20016G27KT 9999 -DZ OVC012 12/10 Q1014 -DZ SSW (200°) 18.4mph 31.1mph 12°C 10°C
15/02/19 18:00 EIME 151800Z 19017KT 9999 OVC012 12/10 Q1014 S (190°) 19.6mph 12°C 10°C
15/02/19 17:00 EIME 151700Z 21018KT 9999 -DZ OVC011 12/10 Q1014 -DZ SSW (210°) 20.7mph 12°C 10°C
15/02/19 16:30 EIME 151630Z 20020KT 9999 OVC015 12/09 Q1014 SSW (200°) 23.0mph 12°C 9°C
15/02/19 16:00 EIME 151600Z 20019G33KT 9999 FEW019 BKN020 BKN250 13/09 Q1014 SSW (200°) 21.9mph 38.0mph 13°C 9°C
15/02/19 15:30 EIME 151530Z 20022KT 9999 FEW022 BKN250 13/09 Q1014 SSW (200°) 25.3mph 13°C 9°C
15/02/19 15:00 EIME 151500Z 20024KT 9999 FEW022 BKN250 13/09 Q1014 SSW (200°) 27.6mph 13°C 9°C
15/02/19 14:30 EIME 151430Z 21021KT 9999 FEW022 BKN250 14/08 Q1015 SSW (210°) 24.2mph 14°C 8°C
15/02/19 14:00 EIME 151400Z 20024KT 9999 FEW022 BKN250 14/08 Q1015 SSW (200°) 27.6mph 14°C 8°C
15/02/19 13:30 EIME 151330Z 22015G25KT 9999 FEW022 BKN250 14/08 Q1015 SW (220°) 17.3mph 28.8mph 14°C 8°C
15/02/19 13:00 EIME 151300Z 21016G26KT 180V240 CAVOK 14/07 Q1016 SSW (210°) 18.4mph 29.9mph 14°C 7°C
15/02/19 12:30 EIME 151230Z 20020KT 9999 FEW022 SCT250 14/07 Q1016 SSW (200°) 23.0mph 14°C 7°C
15/02/19 12:00 EIME 151200Z 21012G23KT 9999 FEW022 SCT250 14/07 Q1017 SSW (210°) 13.8mph 26.5mph 14°C 7°C
15/02/19 11:30 EIME 151130Z 19022KT 9999 FEW022 SCT250 13/06 Q1017 S (190°) 25.3mph 13°C 6°C
15/02/19 11:00 EIME 151100Z 20022KT 9999 FEW022 SCT250 13/06 Q1018 SSW (200°) 25.3mph 13°C 6°C
15/02/19 10:30 EIME 151030Z 20021G31KT 9999 FEW022 SCT250 14/05 Q1018 SSW (200°) 24.2mph 35.7mph 14°C 5°C
15/02/19 10:00 EIME 151000Z 20019G30KT 9999 FEW022 SCT250 13/06 Q1018 SSW (200°) 21.9mph 34.5mph 13°C 6°C
15/02/19 09:30 EIME 150930Z 18017KT 9999 FEW020 SCT250 12/05 Q1018 S (180°) 19.6mph 12°C 5°C
15/02/19 09:00 EIME 150900Z 18013KT 140V210 9999 FEW020 SCT250 10/05 Q1018 S (180°) 15.0mph 10°C 5°C
15/02/19 08:30 EIME 150830Z 19010KT 9999 FEW020 SCT250 09/04 Q1018 S (190°) 11.5mph 9°C 4°C
15/02/19 08:00 EIME 150800Z 02004KT 9999 FEW020 SCT250 09/04 Q1018 NNE (20°) 4.6mph 9°C 4°C
15/02/19 07:00 EIME 150700Z VRB03KT 9999 FEW020 03/00 Q1019 N (0°) 3.5mph 3°C 0°C
15/02/19 06:00 EIME 150600Z VRB03KT 9999 FEW020 03/00 Q1019 N (0°) 3.5mph 3°C 0°C
15/02/19 05:00 EIME 150500Z VRB03KT 9999 FEW020 01/M01 Q1020 N (0°) 3.5mph 1°C -1°C
15/02/19 04:00 EIME 150400Z VRB03KT 9999 FEW020 03/M00 Q1020 N (0°) 3.5mph 3°C 0°C
15/02/19 03:00 EIME 150300Z VRB03KT 9999 FEW020 01/M00 Q1021 N (0°) 3.5mph 1°C 0°C
15/02/19 02:00 EIME 150200Z 12005KT 9999 FEW020 02/01 Q1021 ESE (120°) 5.8mph 2°C 1°C
15/02/19 01:00 EIME 150100Z VRB03KT 9999 FEW020 02/01 Q1022 N (0°) 3.5mph 2°C 1°C
15/02/19 00:00 EIME 150000Z VRB02KT 9999 FEW020 02/01 Q1022 N (0°) 2.3mph 2°C 1°C
14/02/19 23:00 EIME 142300Z VRB03KT CAVOK 01/01 Q1023 N (0°) 3.5mph 1°C 1°C
14/02/19 22:00 EIME 142200Z 06004KT CAVOK 03/02 Q1023 ENE (60°) 4.6mph 3°C 2°C
14/02/19 21:00 EIME 142100Z 16003KT 9999 FEW020 03/02 Q1023 SSE (160°) 3.5mph 3°C 2°C
14/02/19 20:00 EIME 142000Z 18002KT 9999 FEW020 03/02 Q1023 S (180°) 2.3mph 3°C 2°C
14/02/19 19:00 EIME 141900Z 28001KT 9999 FEW020 06/04 Q1023 W (280°) 1.2mph 6°C 4°C
14/02/19 18:00 EIME 141800Z 20003KT 9999 FEW020 07/04 Q1023 SSW (200°) 3.5mph 7°C 4°C
14/02/19 17:00 EIME 141700Z 29004KT 9999 FEW020 BKN250 11/05 Q1023 WNW (290°) 4.6mph 11°C 5°C
14/02/19 16:00 EIME 141600Z 27003KT 9999 FEW022 BKN250 13/06 Q1023 W (270°) 3.5mph 13°C 6°C
14/02/19 15:30 EIME 141530Z 08003KT 9999 FEW022 BKN250 13/06 Q1023 E (80°) 3.5mph 13°C 6°C
14/02/19 15:00 EIME 141500Z 03003KT 9999 FEW022 BKN250 13/07 Q1024 NNE (30°) 3.5mph 13°C 7°C
14/02/19 14:30 EIME 141430Z 04002KT 9999 FEW022 BKN250 13/06 Q1024 NE (40°) 2.3mph 13°C 6°C
14/02/19 14:00 EIME 141400Z 33002KT 9999 FEW022 BKN250 13/06 Q1024 NNW (330°) 2.3mph 13°C 6°C
14/02/19 13:30 EIME 141330Z 30002KT 9999 FEW022 BKN250 14/06 Q1024 WNW (300°) 2.3mph 14°C 6°C
14/02/19 13:00 EIME 141300Z 08001KT 9999 FEW022 BKN250 13/06 Q1025 E (80°) 1.2mph 13°C 6°C
14/02/19 12:30 EIME 141230Z 06003KT 9999 FEW022 BKN250 12/05 Q1025 ENE (60°) 3.5mph 12°C 5°C
14/02/19 12:00 EIME 141200Z 11004KT 9999 FEW022 BKN250 12/06 Q1025 ESE (110°) 4.6mph 12°C 6°C
14/02/19 11:30 EIME 141130Z 15004KT 9999 FEW025 BKN200 11/06 Q1025 SSE (150°) 4.6mph 11°C 6°C
14/02/19 11:00 EIME 141100Z 24006KT 9999 FEW025 BKN200 11/06 Q1025 WSW (240°) 6.9mph 11°C 6°C
14/02/19 10:30 EIME 141030Z 16005KT 9999 FEW025 BKN200 11/06 Q1025 SSE (160°) 5.8mph 11°C 6°C
14/02/19 10:00 EIME 141000Z 17010KT 9999 FEW025 BKN200 10/06 Q1026 S (170°) 11.5mph 10°C 6°C
14/02/19 09:30 EIME 140930Z 18009KT 9999 FEW025 09/05 Q1026 S (180°) 10.4mph 9°C 5°C
14/02/19 09:00 EIME 140900Z 16006KT 9999 FEW020 SCT120 08/05 Q1026 SSE (160°) 6.9mph 8°C 5°C
14/02/19 08:30 EIME 140830Z 20010KT 9999 FEW020 SCT120 08/05 Q1026 SSW (200°) 11.5mph 8°C 5°C
14/02/19 08:00 EIME 140800Z 22008KT 9999 FEW020 SCT120 08/05 Q1026 SW (220°) 9.2mph 8°C 5°C
14/02/19 07:00 EIME 140700Z 19008KT 9999 BKN020 09/06 Q1025 S (190°) 9.2mph 9°C 6°C
14/02/19 06:00 EIME 140600Z 19007KT 9999 BKN021 09/05 Q1025 S (190°) 8.1mph 9°C 5°C
14/02/19 05:00 EIME 140500Z 20008KT 9999 BKN021 09/05 Q1025 SSW (200°) 9.2mph 9°C 5°C
14/02/19 04:00 EIME 140400Z 21005KT 9999 BKN021 09/06 Q1025 SSW (210°) 5.8mph 9°C 6°C
14/02/19 03:00 EIME 140300Z 20011KT 9999 BKN021 09/06 Q1025 SSW (200°) 12.7mph 9°C 6°C
14/02/19 02:00 EIME 140200Z 21013G23KT 9999 BKN021 09/06 Q1025 SSW (210°) 15.0mph 26.5mph 9°C 6°C
14/02/19 01:00 EIME 140100Z 21017KT 9999 BKN021 09/06 Q1025 SSW (210°) 19.6mph 9°C 6°C
14/02/19 00:00 EIME 140000Z 21017KT 9999 BKN020 09/06 Q1024 SSW (210°) 19.6mph 9°C 6°C
13/02/19 23:00 EIME 132300Z 21017KT 9999 BKN020 09/06 Q1024 SSW (210°) 19.6mph 9°C 6°C
13/02/19 22:00 EIME 132200Z 21015G28KT 9999 BKN022 SCT220 09/06 Q1024 SSW (210°) 17.3mph 32.2mph 9°C 6°C
13/02/19 21:00 EIME 132100Z 21017G32KT 9999 SCT022 BKN210 BKN250 09/06 Q1023 SSW (210°) 19.6mph 36.8mph 9°C 6°C
13/02/19 20:00 EIME 132000Z 21018G35KT 9999 SCT023 BKN190 09/06 Q1023 SSW (210°) 20.7mph 40.3mph 9°C 6°C
13/02/19 19:00 EIME 131900Z 21023G34KT 9999 FEW023 SCT190 09/06 Q1023 SSW (210°) 26.5mph 39.1mph 9°C 6°C
13/02/19 18:00 EIME 131800Z 22017G30KT 9999 FEW016 BKN200 09/06 Q1023 SW (220°) 19.6mph 34.5mph 9°C 6°C
13/02/19 17:00 EIME 131700Z 22018G33KT 9999 SCT022 BKN200 09/06 Q1023 SW (220°) 20.7mph 38.0mph 9°C 6°C
13/02/19 16:00 EIME 131600Z 22019G38KT 9999 FEW021 BKN200 10/06 Q1023 SW (220°) 21.9mph 43.7mph 10°C 6°C
13/02/19 15:30 EIME 131530Z 21021G38KT 9999 FEW020 SCT200 10/06 Q1023 SSW (210°) 24.2mph 43.7mph 10°C 6°C
13/02/19 15:00 EIME 131500Z 21024G36KT 9999 FEW020 BKN200 10/06 Q1022 SSW (210°) 27.6mph 41.4mph 10°C 6°C
13/02/19 14:30 EIME 131430Z 21021G35KT 9999 FEW019 BKN200 11/06 Q1023 SSW (210°) 24.2mph 40.3mph 11°C 6°C
13/02/19 14:00 EIME 131400Z 21019G35KT 9999 SCT019 BKN200 11/06 Q1023 SSW (210°) 21.9mph 40.3mph 11°C 6°C
13/02/19 13:30 EIME 131330Z 21021G35KT 9999 SCT020 BKN200 11/07 Q1023 SSW (210°) 24.2mph 40.3mph 11°C 7°C
13/02/19 13:00 EIME 131300Z 20021G33KT 9999 SCT019 BKN200 11/07 Q1024 SSW (200°) 24.2mph 38.0mph 11°C 7°C
13/02/19 12:30 EIME 131230Z 21022KT 9999 FEW019 SCT030 BKN250 11/07 Q1024 SSW (210°) 25.3mph 11°C 7°C
13/02/19 12:00 EIME 131200Z 22017G27KT 9999 SCT021 BKN250 11/07 Q1024 SW (220°) 19.6mph 31.1mph 11°C 7°C
13/02/19 11:30 EIME 131130Z 21016KT 9999 SCT021 SCT040 10/06 Q1024 SSW (210°) 18.4mph 10°C 6°C
13/02/19 11:00 EIME 131100Z 21015G27KT 9999 SCT021 SCT040 BKN250 10/06 Q1024 SSW (210°) 17.3mph 31.1mph 10°C 6°C